Terminal Aerodrome Forecast
Issued by NWS

Home | Current Version | Previous Version | Text Only | Print | Product List | Glossary On
Versions: 1 2 3 4 5 6 7 8 9 10 11 12 13
728
FTUS43 KDVN 250520
TAFCID
TAF
KCID 250520Z 2506/2606 15007KT P6SM SCT200 WS020/16040KT
     FM251500 16014KT P6SM VCSH BKN080
     FM251900 15016G24KT P6SM BKN250
     FM260000 14010KT P6SM BKN250=

USA.gov is the U.S. government's official web portal to all federal, state and local government web resources and services.